San Juan Capistrano, CA (92675)

8:07 AM PDT on July 25, 2016 (GMT -0700)
Whispering Hills - San Juan Capistrano | | Change Station

Elev 482 ft 33.49 °N, 117.62 °W | Updated 13 minutes ago

Haze
Haze
75.6 °F
Feels Like 77 °F
N
3.7
Wind Variable Wind from ESE

Today
High -- | Low -- °F
--% Chance of Precip.
Yesterday
High -- | Low -- °F
Precip. -- in
Pressure 30.22 in
Visibility 5.0 miles
Clouds Mostly Cloudy 1100 ft
Heat Index 77 °F
Dew Point 68 °F
Humidity 78%
Rainfall 0.00 in
Snow Depth Not available.
5:58 AM 7:55 PM
Waning Gibbous, 65% visible
METAR KNXF 251456Z AUTO 18003KT 5SM HZ BKN011 23/20 A2997 RMK AO2 SLP231 T02280200 53021 $
Pressure 30.22 in
Visibility 5.0 miles
Clouds Mostly Cloudy 1100 ft
Heat Index 77 °F
Dew Point 68 °F
Humidity 78%
Rainfall 0.00 in
Snow Depth Not available.
5:58 AM 7:55 PM
Waning Gibbous, 65% visible
METAR KNXF 251456Z AUTO 18003KT 5SM HZ BKN011 23/20 A2997 RMK AO2 SLP231 T02280200 53021 $

10-Day Weather Forecast

Almanac

Astronomy

Jul. 25, 2016 Rise Set
Actual Time
Civil Twilight
Nautical Twilight
Astronomical Twilight
Moon
Length of Visible Light
Length of Day
Tomorrow will be .
, % of the Moon is Illuminated

Today's Extremes

State Highs State Lows

Community

WunderPhotos

Upload Photos

1,927,308 photos uploaded!

WunderBlog® & News

Nearby

Air Quality

  Air Quality AQ Index Pollutant
Not available.

Snow Depth

Station Depth Elevation

Earthquake Activity

City Distance Mag. Time & Date
Minimum magnitude displayed is 2.5.

Coastal Water Temperatures

Place Temperature

Stations

Nearby Weather Stations

Station Location Temp. Windchill Dew Point Humidity Wind Precip. Elev Updated Type
                   

Watches & Warnings

There are currently no watches in effect.